Time;durP1;ratioP1;P1;durP2;ratioP2;P2;SDS_P1;SDS_P2;PMS_P1;PMS_P2;Temp;Humidity;BMP_temperature;BMP_pressure;BME280_temperature;BME280_humidity;BME280_pressure;Samples;Min_cycle;Max_cycle;Signal;HPM_P1;HPM_P2
2022/05/03 00:00:11;;;;;;;7.72;6.93;;;;;;;4.61;100.00;92853.56;2084384;28;20438;-82
2022/05/03 00:01:17;;;;;;;6.85;6.25;;;;;;;4.53;100.00;92853.59;2092610;28;20517;-81
2022/05/03 00:02:48;;;;;;;7.90;6.60;;;;;;;4.52;100.00;92853.97;2098321;28;20068;-81
2022/05/03 00:04:07;;;;;;;6.68;6.15;;;;;;;4.52;100.00;92853.97;2111222;28;20024;-81
2022/05/03 00:05:15;;;;;;;6.53;5.93;;;;;;;4.52;100.00;92852.09;2115131;28;20073;-81
2022/05/03 00:06:27;;;;;;;6.82;6.03;;;;;;;4.45;100.00;92852.09;2107610;28;20056;-82
2022/05/03 00:07:46;;;;;;;8.68;6.70;;;;;;;4.41;100.00;92848.72;2108262;28;20158;-81
2022/05/03 00:09:04;;;;;;;6.87;6.27;;;;;;;4.38;100.00;92852.13;2100856;28;20469;-80
2022/05/03 00:10:11;;;;;;;6.70;6.10;;;;;;;4.53;100.00;92845.66;2094735;28;20549;-80
2022/05/03 00:11:15;;;;;;;7.03;5.88;;;;;;;4.41;100.00;92850.63;2099005;28;20465;-82
2022/05/03 00:12:21;;;;;;;6.50;5.90;;;;;;;4.36;100.00;92845.72;2090944;28;20048;-79
2022/05/03 00:13:32;;;;;;;7.18;6.57;;;;;;;4.30;100.00;92842.69;2098586;28;20040;-80
2022/05/03 00:14:38;;;;;;;7.70;6.90;;;;;;;4.33;100.00;92847.22;2092348;28;20055;-80
2022/05/03 00:15:40;;;;;;;7.13;6.53;;;;;;;4.36;100.00;92846.47;2099801;28;20024;-81
2022/05/03 00:16:44;;;;;;;7.68;6.93;;;;;;;4.36;100.00;92849.13;2106710;28;20053;-82
2022/05/03 00:17:45;;;;;;;7.68;6.90;;;;;;;4.37;100.00;92844.56;2106509;28;20584;-80
2022/05/03 00:18:47;;;;;;;7.40;6.65;;;;;;;4.29;100.00;92849.13;2090125;28;20053;-81
2022/05/03 00:19:48;;;;;;;7.97;6.70;;;;;;;4.33;100.00;92851.75;2098416;28;20711;-82
2022/05/03 00:20:50;;;;;;;7.80;6.88;;;;;;;4.41;100.00;92850.63;2098502;28;20066;-82
2022/05/03 00:21:51;;;;;;;7.45;6.75;;;;;;;4.33;100.00;92847.22;2098429;28;20044;-80
2022/05/03 00:22:54;;;;;;;7.40;6.55;;;;;;;4.26;100.00;92848.00;2086299;28;20021;-81
2022/05/03 00:23:55;;;;;;;8.65;6.53;;;;;;;4.31;100.00;92843.47;2098537;28;20009;-80
2022/05/03 00:24:57;;;;;;;7.55;6.95;;;;;;;4.31;100.00;92846.13;2106660;28;20078;-81
2022/05/03 00:25:58;;;;;;;7.65;6.95;;;;;;;4.24;100.00;92847.63;2097420;28;20434;-80
2022/05/03 00:26:59;;;;;;;7.57;6.75;;;;;;;4.30;100.00;92842.69;2098484;28;20098;-81
2022/05/03 00:28:00;;;;;;;7.25;6.53;;;;;;;4.27;100.00;92846.13;2106433;28;20020;-81
2022/05/03 00:29:03;;;;;;;8.40;7.32;;;;;;;4.28;100.00;92845.72;2106578;28;20024;-80
2022/05/03 00:30:06;;;;;;;7.60;6.90;;;;;;;4.27;100.00;92840.81;2098605;28;20025;-81
2022/05/03 00:31:07;;;;;;;7.10;6.38;;;;;;;4.29;100.00;92841.19;2098471;28;20024;-79
2022/05/03 00:32:08;;;;;;;7.32;6.63;;;;;;;4.29;100.00;92841.94;2090031;28;20524;-82
2022/05/03 00:33:09;;;;;;;7.18;6.57;;;;;;;4.31;100.00;92841.56;2098224;28;20024;-83
2022/05/03 00:34:17;;;;;;;7.53;6.68;;;;;;;4.27;100.00;92841.56;2114988;28;20023;-80
2022/05/03 00:35:21;;;;;;;7.50;6.85;;;;;;;4.21;100.00;92837.03;2106389;28;20043;-81
2022/05/03 00:36:23;;;;;;;8.02;6.60;;;;;;;4.22;100.00;92843.88;2090770;28;20563;-80
2022/05/03 00:37:24;;;;;;;7.43;6.75;;;;;;;4.18;100.00;92843.13;2099004;28;20025;-81
2022/05/03 00:38:25;;;;;;;6.97;6.32;;;;;;;4.21;100.00;92837.78;2097639;28;20455;-80
2022/05/03 00:39:27;;;;;;;7.45;6.72;;;;;;;4.23;100.00;92837.44;2098220;28;20072;-81
2022/05/03 00:40:32;;;;;;;6.85;6.25;;;;;;;4.20;100.00;92836.28;2098237;28;20028;-80
2022/05/03 00:41:54;;;;;;;9.13;6.85;;;;;;;4.20;100.00;92830.25;2091119;28;20531;-80
2022/05/03 00:43:08;;;;;;;11.52;6.30;;;;;;;4.15;100.00;92833.28;2095792;28;20073;-81
2022/05/03 00:46:18;;;;;;;7.28;6.60;;;;;;;4.13;100.00;92831.03;2110497;28;20028;-82
2022/05/03 00:47:30;;;;;;;8.45;6.25;;;;;;;3.99;100.00;92831.03;2100941;28;20031;-80
2022/05/03 00:48:56;;;;;;;6.68;6.07;;;;;;;4.17;100.00;92831.00;2092711;28;20020;-80
2022/05/03 00:50:03;;;;;;;6.85;6.25;;;;;;;4.11;100.00;92829.91;2087767;28;20021;-80
2022/05/03 00:51:22;;;;;;;7.68;6.53;;;;;;;4.08;100.00;92828.75;2091292;28;20059;-80
2022/05/03 00:52:32;;;;;;;7.85;6.30;;;;;;;4.03;100.00;92829.91;2097613;28;20048;-81
2022/05/03 00:53:36;;;;;;;;;;;;;;;4.02;100.00;92832.94;2099345;28;20029;-81
2022/05/03 00:55:04;;;;;;;6.43;5.82;;;;;;;4.09;100.00;92830.28;2098382;28;19923;-81
2022/05/03 00:56:22;;;;;;;7.78;6.65;;;;;;;4.07;100.00;92831.78;2101505;28;20103;-81
2022/05/03 00:57:50;;;;;;;7.10;6.40;;;;;;;4.15;100.00;92828.00;2100423;28;20029;-80
2022/05/03 00:59:02;;;;;;;10.77;7.20;;;;;;;3.98;100.00;92827.66;2098210;28;20023;-83
2022/05/03 01:00:11;;;;;;;7.25;6.65;;;;;;;4.00;100.00;92828.03;2099516;28;20020;-81
2022/05/03 01:01:32;;;;;;;7.57;6.88;;;;;;;4.03;100.00;92826.50;2098908;28;20026;-82
2022/05/03 01:03:06;;;;;;;7.30;6.63;;;;;;;4.02;100.00;92827.66;2103084;28;20689;-80
2022/05/03 01:04:34;;;;;;;8.50;6.88;;;;;;;3.92;100.00;92821.25;2072857;28;20045;-82
2022/05/03 01:06:16;;;;;;;7.38;6.68;;;;;;;3.94;100.00;92826.91;2097412;28;20114;-81
2022/05/03 01:07:31;;;;;;;7.68;6.75;;;;;;;3.86;100.00;92825.41;2112389;28;20027;-80
2022/05/03 01:09:06;;;;;;;7.60;6.80;;;;;;;3.87;100.00;92823.53;2097795;28;20049;-81
2022/05/03 01:10:33;;;;;;;7.70;7.00;;;;;;;3.83;100.00;92828.81;2090739;28;20021;-81
2022/05/03 01:11:43;;;;;;;7.70;6.90;;;;;;;3.90;100.00;92823.50;2088176;28;20035;-80
2022/05/03 01:12:48;;;;;;;7.60;6.90;;;;;;;3.84;100.00;92832.97;2090540;28;20521;-84
2022/05/03 01:14:21;;;;;;;7.93;7.22;;;;;;;3.87;100.00;92819.00;2090394;28;20437;-80
2022/05/03 01:15:33;;;;;;;8.23;6.82;;;;;;;3.86;100.00;92830.69;2076655;28;20133;-81
2022/05/03 01:16:44;;;;;;;7.72;6.90;;;;;;;3.85;100.00;92821.25;2097708;28;20393;-80
2022/05/03 01:18:03;;;;;;;7.18;6.50;;;;;;;3.88;100.00;92825.78;2092557;28;20100;-81
2022/05/03 01:19:45;;;;;;;7.68;7.07;;;;;;;3.97;100.00;92823.50;2092066;28;20704;-82
2022/05/03 01:21:07;;;;;;;7.72;6.53;;;;;;;3.81;100.00;92820.50;2104418;28;20111;-82
2022/05/03 01:22:25;;;;;;;8.07;7.28;;;;;;;3.91;100.00;92819.00;2100814;28;20031;-81
2022/05/03 01:23:50;;;;;;;7.15;6.65;;;;;;;4.09;100.00;92821.59;2094138;28;20100;-80
2022/05/03 01:25:15;;;;;;;7.75;6.95;;;;;;;3.98;100.00;92816.31;2092930;28;20093;-80
2022/05/03 01:26:31;;;;;;;7.53;6.82;;;;;;;3.87;100.00;92815.59;2105160;28;20028;-81
2022/05/03 01:27:49;;;;;;;7.97;7.25;;;;;;;3.84;100.00;92819.75;2101654;28;20473;-81
2022/05/03 01:28:54;;;;;;;8.82;6.32;;;;;;;3.73;100.00;92821.63;2097724;28;20024;-83
2022/05/03 01:29:58;;;;;;;7.55;6.85;;;;;;;3.70;100.00;92817.88;2082589;28;20033;-80
2022/05/03 01:31:11;;;;;;;8.18;7.25;;;;;;;3.70;100.00;92817.88;2087576;28;20059;-80
2022/05/03 01:32:12;;;;;;;7.88;7.18;;;;;;;3.72;100.00;92820.13;2092652;28;20029;-82
2022/05/03 01:33:18;;;;;;;7.85;7.07;;;;;;;3.66;100.00;92819.00;2089509;28;20122;-80
2022/05/03 01:34:19;;;;;;;8.73;7.82;;;;;;;3.58;100.00;92817.50;2090839;28;20079;-81
2022/05/03 01:35:21;;;;;;;7.85;7.07;;;;;;;3.63;100.00;92817.88;2097644;28;20028;-82
2022/05/03 01:36:45;;;;;;;7.95;7.25;;;;;;;3.71;100.00;92815.97;2097684;28;20057;-81
2022/05/03 01:38:03;;;;;;;8.38;7.57;;;;;;;3.68;100.00;92822.03;2103641;28;20031;-80
2022/05/03 01:39:14;;;;;;;7.18;6.57;;;;;;;3.58;100.00;92820.16;2108352;28;20102;-81
2022/05/03 01:40:43;;;;;;;7.20;6.50;;;;;;;3.72;100.00;92812.19;2105834;28;20023;-81
2022/05/03 01:41:54;;;;;;;7.78;7.07;;;;;;;3.75;100.00;92814.84;2105842;28;20061;-81
2022/05/03 01:43:03;;;;;;;7.50;6.80;;;;;;;3.67;100.00;92809.94;2100511;28;20552;-80
2022/05/03 01:44:20;;;;;;;7.85;7.05;;;;;;;3.66;100.00;92811.84;2098839;28;20023;-80
2022/05/03 01:45:31;;;;;;;8.07;7.28;;;;;;;3.55;100.00;92808.44;2099709;28;20024;-81
2022/05/03 01:46:37;;;;;;;7.97;7.18;;;;;;;3.61;100.00;92806.94;2098961;28;20028;-81
2022/05/03 01:48:17;;;;;;;8.07;7.20;;;;;;;3.53;100.00;92808.06;2098884;28;20028;-80
2022/05/03 01:51:14;;;;;;;8.98;6.88;;;;;;;3.61;100.00;92801.66;2110821;28;20030;-82
2022/05/03 01:52:53;;;;;;;7.50;6.90;;;;;;;3.51;100.00;92805.81;2100319;28;20489;-81
2022/05/03 01:54:14;;;;;;;7.38;6.70;;;;;;;3.51;100.00;92800.53;2069562;28;20065;-81
2022/05/03 01:55:48;;;;;;;7.88;7.10;;;;;;;3.46;100.00;92800.88;2075200;28;20121;-81
2022/05/03 01:57:31;;;;;;;7.57;6.90;;;;;;;3.45;100.00;92804.66;2064171;28;20045;-81
2022/05/03 01:58:34;;;;;;;7.97;7.28;;;;;;;3.46;100.00;92803.53;2095702;28;20066;-80
2022/05/03 02:00:01;;;;;;;8.65;7.22;;;;;;;3.43;100.00;92806.19;2106323;28;20480;-81
2022/05/03 02:01:09;;;;;;;7.55;6.85;;;;;;;3.43;100.00;92806.19;2099071;28;20024;-81
2022/05/03 02:02:23;;;;;;;8.30;7.30;;;;;;;3.43;100.00;92806.19;2106061;28;20028;-82
2022/05/03 02:03:30;;;;;;;7.35;6.75;;;;;;;3.35;100.00;92808.06;2099373;28;20024;-81
2022/05/03 02:05:08;;;;;;;9.05;7.35;;;;;;;3.28;100.00;92805.41;2099253;28;20110;-81
2022/05/03 02:06:12;;;;;;;9.48;7.75;;;;;;;3.36;100.00;92804.28;2102327;28;20020;-82
2022/05/03 02:07:22;;;;;;;8.27;7.57;;;;;;;3.33;100.00;92805.03;2089991;28;20088;-81
2022/05/03 02:08:23;;;;;;;;;;;;;;;3.37;100.00;92807.69;2084133;28;20465;-81
2022/05/03 02:09:45;;;;;;;7.45;6.72;;;;;;;3.43;100.00;92801.66;2089393;28;19915;-81
2022/05/03 02:10:52;;;;;;;6.63;6.03;;;;;;;3.35;100.00;92809.97;2092106;28;20028;-80
2022/05/03 02:13:08;;;;;;;;;;;;;;;3.31;100.00;92809.94;2148767;27;20109;-80
2022/05/03 02:15:39;;;;;;;7.95;7.25;;;;;;;3.23;100.00;92809.19;2128201;27;20025;-80
2022/05/03 02:16:51;;;;;;;7.78;7.07;;;;;;;3.21;100.00;92808.06;2129970;27;20018;-80
2022/05/03 02:18:32;;;;;;;8.85;7.22;;;;;;;3.27;100.00;92806.56;2123122;27;20526;-80
2022/05/03 02:19:35;;;;;;;;;;;;;;;3.27;100.00;92804.66;2127740;27;20427;-80
2022/05/03 02:20:58;;;;;;;7.57;6.88;;;;;;;3.31;100.00;92798.63;2113924;27;19908;-81
2022/05/03 02:22:20;;;;;;;8.35;7.53;;;;;;;3.27;100.00;92796.75;2124650;27;20060;-80
2022/05/03 02:23:33;;;;;;;9.40;8.05;;;;;;;3.26;100.00;92805.03;2119115;27;20034;-81
2022/05/03 02:24:42;;;;;;;7.82;7.13;;;;;;;3.29;100.00;92801.63;2116396;27;20024;-79
2022/05/03 02:25:52;;;;;;;9.43;7.80;;;;;;;3.15;100.00;92799.75;2123435;27;20047;-83
2022/05/03 02:27:23;;;;;;;11.80;8.45;;;;;;;3.17;100.00;92802.78;2131053;27;20038;-81
2022/05/03 02:28:38;;;;;;;8.05;7.35;;;;;;;3.19;100.00;92807.66;2131393;27;20414;-81
2022/05/03 02:29:44;;;;;;;8.05;7.35;;;;;;;3.25;100.00;92800.91;2130127;27;20781;-82
2022/05/03 02:30:49;;;;;;;8.75;7.85;;;;;;;3.21;100.00;92805.44;2114328;27;20020;-81
2022/05/03 02:32:02;;;;;;;7.35;6.65;;;;;;;3.27;100.00;92806.56;2121513;28;20034;-80
2022/05/03 02:33:31;;;;;;;8.25;7.45;;;;;;;3.26;100.00;92808.44;2116452;27;20024;-82
2022/05/03 02:34:40;;;;;;;8.60;7.82;;;;;;;3.21;100.00;92802.78;2117071;28;20091;-81
2022/05/03 02:35:48;;;;;;;8.60;7.80;;;;;;;3.12;100.00;92803.16;2115311;27;20406;-80
2022/05/03 02:36:59;;;;;;;8.95;8.10;;;;;;;3.09;100.00;92797.88;2114090;28;20016;-79
2022/05/03 02:38:06;;;;;;;8.23;7.45;;;;;;;3.08;100.00;92805.03;2120863;27;20030;-80
2022/05/03 02:39:12;;;;;;;8.50;7.70;;;;;;;2.96;100.00;92800.84;2130027;27;20071;-80
2022/05/03 02:40:17;;;;;;;9.70;8.15;;;;;;;2.93;100.00;92796.31;2113691;28;20028;-80
2022/05/03 02:41:19;;;;;;;8.60;7.80;;;;;;;2.92;100.00;92801.97;2113565;27;20097;-80
2022/05/03 02:42:21;;;;;;;9.07;8.25;;;;;;;3.01;100.00;92799.72;2113137;28;20067;-80
2022/05/03 02:43:25;;;;;;;8.80;7.82;;;;;;;3.09;100.00;92795.22;2113432;27;20020;-80
2022/05/03 02:44:29;;;;;;;10.57;8.13;;;;;;;3.04;100.00;92796.34;2122228;27;20038;-81
2022/05/03 02:45:34;;;;;;;8.77;7.85;;;;;;;3.11;100.00;92798.22;2121446;28;20015;-81
2022/05/03 02:46:46;;;;;;;8.32;7.53;;;;;;;3.14;100.00;92800.88;2105644;28;20107;-81
2022/05/03 02:47:52;;;;;;;8.73;7.82;;;;;;;3.26;100.00;92794.47;2126640;27;20579;-80
2022/05/03 02:49:03;;;;;;;8.43;7.63;;;;;;;3.31;100.00;92799.38;2129954;27;20019;-81
2022/05/03 02:50:18;;;;;;;7.80;7.10;;;;;;;3.23;100.00;92792.59;2121921;27;20475;-80
2022/05/03 02:51:27;;;;;;;9.00;8.13;;;;;;;3.16;100.00;92801.28;2125319;27;20031;-80
2022/05/03 02:52:37;;;;;;;8.57;7.78;;;;;;;3.03;100.00;92800.88;2114932;27;20488;-81
2022/05/03 02:53:55;;;;;;;8.75;7.78;;;;;;;2.91;100.00;92800.47;2114219;28;20028;-81
2022/05/03 02:55:13;;;;;;;8.48;7.68;;;;;;;2.78;100.00;92800.06;2115342;28;20123;-80
2022/05/03 02:56:19;;;;;;;9.18;7.72;;;;;;;2.98;100.00;92801.22;2108890;28;20032;-81
2022/05/03 02:57:38;;;;;;;8.02;7.32;;;;;;;3.02;100.00;92799.34;2106246;28;20024;-82
2022/05/03 02:59:00;;;;;;;7.55;6.85;;;;;;;2.95;100.00;92798.59;2117805;27;20449;-80
2022/05/03 03:01:57;;;;;;;7.95;7.25;;;;;;;2.99;100.00;92794.84;2125068;27;20057;-81
2022/05/03 03:03:04;;;;;;;8.50;7.70;;;;;;;2.95;100.00;92794.06;2125580;27;20027;-80
2022/05/03 03:04:15;;;;;;;8.23;7.45;;;;;;;2.88;100.00;92795.94;2121178;28;20394;-81
2022/05/03 03:05:21;;;;;;;7.90;7.20;;;;;;;2.82;100.00;92795.56;2118709;27;20044;-80
2022/05/03 03:06:23;;;;;;;8.95;8.05;;;;;;;2.81;100.00;92791.41;2113339;28;20106;-81
2022/05/03 03:07:27;;;;;;;8.48;7.57;;;;;;;2.81;100.00;92798.56;2121142;27;20022;-80
2022/05/03 03:08:35;;;;;;;7.97;7.25;;;;;;;2.87;100.00;92797.81;2113779;28;20024;-82
2022/05/03 03:09:59;;;;;;;8.82;7.93;;;;;;;2.88;100.00;92790.66;2120460;27;20507;-79
2022/05/03 03:11:04;;;;;;;9.13;8.23;;;;;;;2.86;100.00;92795.56;2121207;28;20015;-81
2022/05/03 03:12:27;;;;;;;8.65;7.82;;;;;;;2.98;100.00;92795.19;2104529;28;20028;-80
2022/05/03 03:14:08;;;;;;;8.48;7.63;;;;;;;2.87;100.00;92787.28;2110034;28;20114;-79
2022/05/03 03:15:10;;;;;;;9.52;8.55;;;;;;;2.75;100.00;92793.66;2116724;28;20023;-80
2022/05/03 03:16:13;;;;;;;9.45;8.45;;;;;;;2.75;100.00;92793.66;2112637;28;20024;-81
2022/05/03 03:17:20;;;;;;;9.02;8.13;;;;;;;2.73;100.00;92789.88;2112985;28;20830;-83
2022/05/03 03:18:24;;;;;;;9.55;8.50;;;;;;;2.75;100.00;92798.19;2105963;28;20024;-81
2022/05/03 03:19:32;;;;;;;9.15;8.02;;;;;;;2.76;100.00;92795.16;2100865;28;20490;-82
2022/05/03 03:20:36;;;;;;;11.13;8.63;;;;;;;2.85;100.00;92794.78;2114686;27;20110;-80
2022/05/03 03:21:38;;;;;;;9.10;8.23;;;;;;;2.92;100.00;92783.50;2113063;28;20016;-82
2022/05/03 03:22:42;;;;;;;9.07;8.10;;;;;;;2.88;100.00;92788.78;2113081;27;20032;-79
2022/05/03 03:23:45;;;;;;;9.55;8.65;;;;;;;2.83;100.00;92791.03;2111508;28;20027;-81
2022/05/03 03:24:49;;;;;;;8.73;7.80;;;;;;;2.81;100.00;92785.34;2099105;28;20111;-80
2022/05/03 03:25:51;;;;;;;9.32;8.38;;;;;;;2.81;100.00;92788.00;2098988;28;20028;-81
2022/05/03 03:26:54;;;;;;;9.43;8.55;;;;;;;2.82;100.00;92782.38;2106971;27;20024;-79
2022/05/03 03:27:57;;;;;;;9.27;8.40;;;;;;;2.80;100.00;92784.59;2115740;27;20046;-82
2022/05/03 03:29:00;;;;;;;8.80;8.00;;;;;;;2.81;100.00;92786.13;2115399;28;20092;-81
2022/05/03 03:30:13;;;;;;;8.93;8.02;;;;;;;2.75;100.00;92787.63;2099575;28;20488;-80
2022/05/03 03:31:17;;;;;;;9.80;8.85;;;;;;;2.69;100.00;92781.97;2110159;27;20039;-80
2022/05/03 03:32:18;;;;;;;9.38;8.48;;;;;;;2.69;100.00;92789.13;2115739;28;20455;-79
2022/05/03 03:33:20;;;;;;;9.70;8.77;;;;;;;2.68;100.00;92782.34;2106908;28;20496;-82
2022/05/03 03:34:23;;;;;;;9.10;8.02;;;;;;;2.75;100.00;92782.34;2107117;28;20028;-81
2022/05/03 03:35:25;;;;;;;9.50;8.60;;;;;;;2.74;100.00;92780.84;2115526;28;20024;-81
2022/05/03 03:36:26;;;;;;;8.65;7.85;;;;;;;2.73;100.00;92782.72;2107010;28;20519;-81
2022/05/03 03:37:30;;;;;;;8.45;7.65;;;;;;;2.76;100.00;92787.22;2113727;28;20019;-81
2022/05/03 03:38:38;;;;;;;9.25;8.35;;;;;;;2.75;100.00;92777.06;2100416;28;20133;-82
2022/05/03 03:39:38;;;;;;;9.48;8.57;;;;;;;2.76;100.00;92783.84;2107885;28;20036;-80
2022/05/03 03:40:40;;;;;;;9.23;8.32;;;;;;;2.71;100.00;92778.94;2098625;28;20020;-81
2022/05/03 03:41:42;;;;;;;9.13;8.10;;;;;;;2.64;100.00;92777.06;2098684;28;20118;-82
2022/05/03 03:42:45;;;;;;;9.23;8.32;;;;;;;2.72;100.00;92781.22;2098117;28;20051;-82
2022/05/03 03:43:46;;;;;;;13.07;8.80;;;;;;;2.74;100.00;92780.84;2090513;28;20028;-79
2022/05/03 03:44:47;;;;;;;9.63;8.73;;;;;;;2.75;100.00;92783.09;2109754;28;20111;-81
2022/05/03 03:45:49;;;;;;;12.02;9.35;;;;;;;2.67;100.00;92778.16;2118156;27;20118;-79
2022/05/03 03:46:50;;;;;;;10.23;9.32;;;;;;;2.66;100.00;92781.94;2110653;28;20024;-82
2022/05/03 03:47:51;;;;;;;12.23;9.50;;;;;;;2.67;100.00;92772.91;2098231;28;20024;-80
2022/05/03 03:48:52;;;;;;;10.65;9.63;;;;;;;2.59;100.00;92780.06;2106721;28;20020;-80
2022/05/03 03:49:55;;;;;;;12.73;10.63;;;;;;;2.67;100.00;92781.56;2106270;27;20024;-80
2022/05/03 03:50:58;;;;;;;10.65;9.55;;;;;;;2.67;100.00;92783.44;2101894;28;20115;-81
2022/05/03 03:51:59;;;;;;;10.40;9.30;;;;;;;2.63;100.00;92785.31;2098545;28;20034;-81
2022/05/03 03:53:01;;;;;;;10.80;9.20;;;;;;;2.58;100.00;92783.81;2089968;28;20780;-82
2022/05/03 03:54:06;;;;;;;9.73;8.68;;;;;;;2.70;100.00;92783.47;2106605;28;20024;-80
2022/05/03 03:55:11;;;;;;;11.07;9.52;;;;;;;2.70;100.00;92785.34;2099386;28;20022;-79
2022/05/03 03:56:12;;;;;;;10.27;9.27;;;;;;;2.70;100.00;92780.06;2106658;28;20028;-79
2022/05/03 03:57:14;;;;;;;10.23;9.32;;;;;;;2.60;100.00;92780.81;2090275;28;20017;-81
2022/05/03 03:58:19;;;;;;;10.80;9.55;;;;;;;2.57;100.00;92779.66;2115480;27;20028;-80
2022/05/03 03:59:21;;;;;;;9.65;8.65;;;;;;;2.63;100.00;92787.97;2110673;28;20024;-80
2022/05/03 04:00:23;;;;;;;9.70;8.75;;;;;;;2.60;100.00;92786.09;2098594;28;20024;-80
2022/05/03 04:01:25;;;;;;;10.15;9.25;;;;;;;2.59;100.00;92789.81;2098039;28;20016;-80
2022/05/03 04:02:27;;;;;;;9.75;8.82;;;;;;;2.60;100.00;92784.19;2099246;28;20051;-80
2022/05/03 04:03:29;;;;;;;10.48;9.13;;;;;;;2.65;100.00;92783.06;2115099;28;20034;-81
2022/05/03 04:04:31;;;;;;;10.45;9.25;;;;;;;2.64;100.00;92776.28;2098700;28;20028;-80
2022/05/03 04:05:35;;;;;;;9.13;8.27;;;;;;;2.68;100.00;92782.34;2115631;27;20020;-80
2022/05/03 04:06:37;;;;;;;10.57;8.82;;;;;;;2.61;100.00;92784.94;2115055;28;20030;-80
2022/05/03 04:07:38;;;;;;;9.60;8.60;;;;;;;2.62;100.00;92776.66;2098708;28;20594;-80
2022/05/03 04:08:39;;;;;;;10.30;8.60;;;;;;;2.59;100.00;92777.41;2098591;28;20036;-80
2022/05/03 04:09:40;;;;;;;10.35;9.35;;;;;;;2.58;100.00;92789.06;2098426;28;20021;-79
2022/05/03 04:10:43;;;;;;;9.38;8.48;;;;;;;2.64;100.00;92778.94;2101330;28;20107;-80
2022/05/03 04:11:46;;;;;;;9.20;8.30;;;;;;;2.57;100.00;92787.56;2098460;28;20076;-80
2022/05/03 04:12:47;;;;;;;8.82;8.07;;;;;;;2.56;100.00;92780.03;2098494;28;20075;-81
2022/05/03 04:13:54;;;;;;;9.63;8.68;;;;;;;2.64;100.00;92782.31;2114546;28;20089;-81
2022/05/03 04:14:55;;;;;;;10.38;8.27;;;;;;;2.63;100.00;92787.97;2114986;28;20028;-81
2022/05/03 04:15:56;;;;;;;9.68;8.68;;;;;;;2.73;100.00;92785.34;2106766;28;20032;-83
2022/05/03 04:16:58;;;;;;;9.93;8.57;;;;;;;2.74;100.00;92786.13;2098241;28;20020;-82
2022/05/03 04:17:59;;;;;;;9.52;8.63;;;;;;;2.70;100.00;92785.34;2092237;28;20070;-82
2022/05/03 04:19:00;;;;;;;9.55;8.65;;;;;;;2.62;100.00;92789.84;2106719;27;20031;-82
2022/05/03 04:20:02;;;;;;;9.43;8.10;;;;;;;2.68;100.00;92792.91;2123363;27;20079;-80
2022/05/03 04:21:03;;;;;;;9.93;8.93;;;;;;;2.58;100.00;92791.72;2106615;28;20032;-80
2022/05/03 04:22:26;;;;;;;9.82;8.88;;;;;;;2.50;100.00;92801.50;2098487;28;20047;-79
2022/05/03 04:23:27;;;;;;;9.77;8.77;;;;;;;2.59;100.00;92808.28;2104186;28;20027;-80
2022/05/03 04:24:28;;;;;;;9.65;8.77;;;;;;;2.61;100.00;92800.78;2098069;28;20031;-81
2022/05/03 04:25:29;;;;;;;10.27;8.73;;;;;;;2.62;100.00;92802.28;2092895;28;20123;-80
2022/05/03 04:26:30;;;;;;;10.82;8.48;;;;;;;2.61;100.00;92812.09;2106094;28;20775;-80
2022/05/03 04:27:31;;;;;;;9.90;8.90;;;;;;;2.65;100.00;92798.91;2106429;28;20035;-81
2022/05/03 04:28:33;;;;;;;9.90;9.00;;;;;;;2.71;100.00;92800.03;2108344;28;20740;-80
2022/05/03 04:29:34;;;;;;;12.57;10.63;;;;;;;2.80;100.00;92808.34;2123465;27;20073;-80
2022/05/03 04:30:36;;;;;;;9.63;8.73;;;;;;;2.85;100.00;92801.97;2106590;28;20423;-79
2022/05/03 04:31:37;;;;;;;9.60;8.70;;;;;;;2.95;100.00;92799.34;2108192;28;20035;-81
2022/05/03 04:32:38;;;;;;;10.13;9.15;;;;;;;3.11;100.00;92798.97;2098105;28;20498;-80
2022/05/03 04:33:40;;;;;;;10.88;9.60;;;;;;;3.24;100.00;92808.03;2106633;28;20061;-81
2022/05/03 04:34:43;;;;;;;10.68;9.60;;;;;;;3.25;100.00;92806.94;2098106;28;20081;-82
2022/05/03 04:35:44;;;;;;;10.45;9.45;;;;;;;3.17;100.00;92804.66;2097911;28;20032;-80
2022/05/03 04:36:45;;;;;;;11.13;10.13;;;;;;;3.18;100.00;92808.81;2102128;28;20020;-79
2022/05/03 04:37:46;;;;;;;11.52;10.32;;;;;;;3.17;100.00;92809.94;2105815;28;20020;-81
2022/05/03 04:38:48;;;;;;;12.30;10.00;;;;;;;3.21;100.00;92810.72;2114385;28;20622;-79
2022/05/03 04:39:49;;;;;;;11.68;9.90;;;;;;;3.19;100.00;92816.34;2106452;28;20070;-80
2022/05/03 04:40:50;;;;;;;10.93;9.45;;;;;;;3.20;100.00;92817.09;2103141;28;20464;-82
2022/05/03 04:41:51;;;;;;;12.07;9.75;;;;;;;3.22;100.00;92812.97;2107044;28;20023;-81
2022/05/03 04:42:52;;;;;;;10.45;9.32;;;;;;;3.35;100.00;92813.34;2108031;28;20069;-79
2022/05/03 04:43:53;;;;;;;10.88;9.70;;;;;;;3.25;100.00;92808.81;2112830;28;20020;-79
2022/05/03 04:44:53;;;;;;;14.30;9.85;;;;;;;3.31;100.00;92807.31;2121828;27;20030;-80
2022/05/03 04:45:54;;;;;;;11.13;9.73;;;;;;;3.25;100.00;92816.75;2103289;28;20031;-80
2022/05/03 04:46:55;;;;;;;11.52;10.00;;;;;;;3.26;100.00;92813.72;2095525;28;20551;-82
2022/05/03 04:47:56;;;;;;;12.20;10.98;;;;;;;3.23;100.00;92817.09;2105018;28;20708;-80
2022/05/03 04:48:57;;;;;;;13.90;11.48;;;;;;;3.22;100.00;92815.59;2112851;28;20030;-81
2022/05/03 04:49:58;;;;;;;11.10;9.82;;;;;;;3.26;100.00;92818.25;2112436;28;20030;-79
2022/05/03 04:50:59;;;;;;;11.52;10.43;;;;;;;3.26;100.00;92810.34;2096356;28;20036;-79
2022/05/03 04:52:00;;;;;;;10.52;9.52;;;;;;;3.24;100.00;92813.31;2090146;28;20064;-80
2022/05/03 04:53:02;;;;;;;10.80;9.80;;;;;;;3.21;100.00;92816.00;2104740;28;20020;-81
2022/05/03 04:54:03;;;;;;;11.90;10.50;;;;;;;3.27;100.00;92814.47;2096526;28;20021;-79
2022/05/03 04:55:05;;;;;;;10.82;9.82;;;;;;;3.35;100.00;92813.34;2096488;28;20747;-80
2022/05/03 04:56:05;;;;;;;12.13;10.90;;;;;;;3.33;100.00;92815.59;2105087;28;20522;-80
2022/05/03 04:57:07;;;;;;;12.35;11.07;;;;;;;3.40;100.00;92810.34;2096647;28;20021;-80
2022/05/03 04:58:09;;;;;;;12.63;11.25;;;;;;;3.43;100.00;92814.88;2088441;28;20469;-80
2022/05/03 04:59:10;;;;;;;13.45;10.68;;;;;;;3.52;100.00;92822.41;2099365;28;20063;-82
2022/05/03 05:00:11;;;;;;;12.27;10.55;;;;;;;3.53;100.00;92816.75;2112170;28;20078;-84
2022/05/03 05:01:12;;;;;;;12.35;11.15;;;;;;;3.50;100.00;92816.75;2090807;28;20029;-80
2022/05/03 05:02:13;;;;;;;10.95;9.95;;;;;;;3.66;100.00;92814.47;2093105;28;20021;-80
2022/05/03 05:03:14;;;;;;;11.27;10.07;;;;;;;3.57;100.00;92818.63;2101314;28;20024;-80
2022/05/03 05:04:15;;;;;;;11.50;10.40;;;;;;;3.56;100.00;92820.53;2105291;28;20032;-80
2022/05/03 05:05:16;;;;;;;11.68;10.57;;;;;;;3.55;100.00;92824.28;2096416;28;20025;-82
2022/05/03 05:06:41;;;;;;;12.40;10.23;;;;;;;3.53;100.00;92826.56;2088714;28;20024;-80
2022/05/03 05:07:42;;;;;;;11.25;10.10;;;;;;;3.56;100.00;92830.31;2106396;27;20502;-80
2022/05/03 05:08:43;;;;;;;11.02;9.85;;;;;;;3.57;100.00;92826.56;2105163;28;20028;-81
2022/05/03 05:10:23;;;;;;;13.95;10.15;;;;;;;3.59;100.00;92837.50;2113709;28;20075;-81
2022/05/03 05:11:06;;;;;;;11.05;9.95;;;;;;;3.65;100.00;92833.38;2107896;28;20131;-81
2022/05/03 05:12:08;;;;;;;10.48;9.48;;;;;;;3.65;100.00;92831.47;2105087;28;20012;-80
2022/05/03 05:13:09;;;;;;;13.07;10.57;;;;;;;3.76;100.00;92824.28;2098574;28;20393;-80
2022/05/03 05:14:10;;;;;;;11.00;10.00;;;;;;;3.81;100.00;92828.44;2088297;28;20029;-81
2022/05/03 05:15:11;;;;;;;11.52;9.90;;;;;;;3.81;100.00;92830.31;2089185;28;20028;-81
2022/05/03 05:16:13;;;;;;;13.13;10.52;;;;;;;3.81;100.00;92830.31;2093490;28;20513;-82
2022/05/03 05:17:15;;;;;;;12.45;11.23;;;;;;;3.89;100.00;92826.53;2096107;28;20032;-81
2022/05/03 05:18:16;;;;;;;12.70;10.95;;;;;;;3.87;100.00;92826.94;2094192;28;20045;-80
2022/05/03 05:19:18;;;;;;;13.70;11.60;;;;;;;3.82;100.00;92821.25;2093660;28;20032;-80
2022/05/03 05:20:21;;;;;;;13.10;11.77;;;;;;;3.82;100.00;92824.66;2099901;28;20078;-80
2022/05/03 05:21:22;;;;;;;13.35;11.30;;;;;;;3.78;100.00;92818.63;2105104;27;20020;-81
2022/05/03 05:22:23;;;;;;;13.50;12.20;;;;;;;3.79;100.00;92828.81;2113463;28;20023;-82
2022/05/03 05:23:24;;;;;;;12.70;11.32;;;;;;;3.83;100.00;92828.06;2107136;28;20028;-81
2022/05/03 05:24:26;;;;;;;11.13;10.02;;;;;;;3.88;100.00;92825.78;2105194;28;20081;-80
2022/05/03 05:25:27;;;;;;;12.68;10.25;;;;;;;3.91;100.00;92826.94;2110589;28;20447;-80
2022/05/03 05:26:28;;;;;;;10.82;9.82;;;;;;;3.93;100.00;92835.22;2099977;28;20167;-80
2022/05/03 05:27:29;;;;;;;10.98;9.88;;;;;;;3.94;100.00;92837.47;2105055;28;20081;-81